Houn Maru — JG5489 — position and weather

sailwx.info

Track history (hours):
 
Tides and Currents Weather Stations Pressure Air Temp Water Temp Dewpoint Dewpoint Depression Visibility Wind Speed Wind Dir Waves Ship Positions

Houn Maru

Last reported at 2015-Jul-06 15:30 UTC. Time now 2015-Jul-06 15:38 UTC.
Position N 34°33' E 135°18'.

Length 91 m; draft 6 m.

Type: Tanker. MMSI: 431101172.

Date/timePositionNaut miles runAvg speedWind from/ knotsBaromVisibWave heightAir tempDewpointWater temp
2015-Jul-06 15:30N 34°33' E 135°18'0 0.0
2015-Jul-06 14:30N 34°33' E 135°18'0 0.0
2015-Jul-06 13:30N 34°33' E 135°18'0 0.0
2015-Jul-06 12:29N 34°33' E 135°18'0 0.1
2015-Jul-06 11:29N 34°33' E 135°18'0 0.0
2015-Jul-06 10:12N 34°33' E 135°18'0 0.0
2015-Jul-06 09:29N 34°33' E 135°18'0 0.0
2015-Jul-06 07:23N 34°33' E 135°18'0 0.0
2015-Jul-06 06:23N 34°33' E 135°18'0 0.1
2015-Jul-06 05:33N 34°33' E 135°18'9 9.5
2015-Jul-06 04:33N 34°25' E 135°11'3 0.7
2015-Jul-06 00:13N 34°25' E 135°14'2 3.6
2015-Jul-05 23:33N 34°23' E 135°12'0 0.0
2015-Jul-05 22:32N 34°23' E 135°12'0 0.0
2015-Jul-05 21:18N 34°23' E 135°12'7 9.3
2015-Jul-05 20:33N 34°28' E 135°07'1110.8
2015-Jul-05 19:33N 34°36' E 134°58'5 0.1
2015-Jul-04 01:05N 34°35' E 134°51'813.7
2015-Jul-04 00:30N 34°37' E 135°01'1212.3
2015-Jul-03 23:33N 34°34' E 135°14'4 3.0
2015-Jul-03 22:07N 34°32' E 135°19'0 0.0
2015-Jul-03 21:31N 34°32' E 135°19'0 0.0
2015-Jul-03 20:31N 34°32' E 135°19'0 0.0
2015-Jul-03 19:31N 34°32' E 135°19'0 0.0
2015-Jul-03 18:13N 34°32' E 135°19'0 0.0
2015-Jul-03 17:25N 34°32' E 135°19'0 0.0
2015-Jul-03 16:31N 34°32' E 135°19'0 0.0
2015-Jul-03 15:31N 34°32' E 135°19'0 0.1
2015-Jul-03 14:31N 34°32' E 135°19'0 0.0
2015-Jul-03 13:19N 34°32' E 135°19'0 0.1
2015-Jul-03 12:31N 34°32' E 135°19'0 0.0
2015-Jul-03 11:25N 34°32' E 135°19'0 0.0
2015-Jul-03 10:31N 34°32' E 135°19'0 0.0
2015-Jul-03 09:31N 34°32' E 135°19'0 0.0
2015-Jul-03 08:31N 34°32' E 135°19'0 0.0
2015-Jul-03 07:31N 34°32' E 135°19'0 0.0
2015-Jul-03 06:19N 34°32' E 135°19'0 0.0
2015-Jul-03 05:31N 34°32' E 135°19'0 0.1
2015-Jul-03 04:31N 34°32' E 135°19'0 0.1
2015-Jul-03 03:31N 34°32' E 135°19'0 0.0
2015-Jul-03 02:31N 34°32' E 135°19'0 0.0
2015-Jul-03 01:13N 34°32' E 135°19'0 0.0
2015-Jul-03 00:31N 34°32' E 135°19'0 0.0
2015-Jul-02 23:31N 34°32' E 135°19'0 0.0
2015-Jul-02 22:31N 34°32' E 135°19'0 0.0
2015-Jul-02 21:19N 34°32' E 135°19'0 0.0
2015-Jul-02 19:25N 34°32' E 135°19'0 0.0
2015-Jul-02 18:31N 34°32' E 135°19'0 0.0
2015-Jul-02 17:31N 34°32' E 135°19'0 0.0
2015-Jul-02 16:25N 34°32' E 135°19'0 0.0
2015-Jul-02 15:31N 34°32' E 135°19'0 0.0
2015-Jul-02 14:25N 34°32' E 135°19'0 0.0
2015-Jul-02 13:25N 34°32' E 135°19'0 0.0
2015-Jul-02 12:31N 34°32' E 135°19'0 0.0
2015-Jul-02 11:07N 34°32' E 135°19'0 0.0
2015-Jul-02 10:19N 34°32' E 135°19'0 0.0
2015-Jul-02 09:31N 34°32' E 135°19'0 0.0
2015-Jul-02 08:31N 34°32' E 135°19'1 1.5
2015-Jul-02 07:33N 34°31' E 135°18'8 7.8
2015-Jul-02 06:33N 34°24' E 135°14'1 0.2
2015-Jul-02 01:30N 34°25' E 135°14'3 2.6
2015-Jul-02 00:32N 34°23' E 135°12'0 0.1
2015-Jul-01 23:32N 34°23' E 135°12'0 0.0
2015-Jul-01 22:31N 34°23' E 135°12'0 0.0
2015-Jul-01 21:32N 34°23' E 135°12'0 0.0
2015-Jul-01 20:31N 34°23' E 135°12'0 0.0
2015-Jul-01 19:32N 34°23' E 135°12'0 0.0
2015-Jul-01 18:16N 34°23' E 135°12'0 0.0
2015-Jul-01 17:31N 34°23' E 135°12'0 0.0
2015-Jul-01 16:25N 34°23' E 135°12'0 0.0
2015-Jul-01 15:28N 34°23' E 135°12'0 0.0
2015-Jul-01 14:31N 34°23' E 135°12'5 5.5
2015-Jul-01 13:33N 34°28' E 135°09'1010.5
2015-Jul-01 12:33N 34°36' E 135°02'1 0.0
2015-Jun-30 00:24N 34°37' E 135°01'1112.4
2015-Jun-29 23:33N 34°33' E 135°13'6 5.2
2015-Jun-29 22:29N 34°32' E 135°19'0 0.0
2015-Jun-29 21:29N 34°32' E 135°19'0 0.0
2015-Jun-29 20:23N 34°32' E 135°19'0 0.1
2015-Jun-29 19:29N 34°32' E 135°19'0 0.1
2015-Jun-29 18:29N 34°32' E 135°19'0 0.0
2015-Jun-29 17:29N 34°32' E 135°19'0 0.0
2015-Jun-29 16:23N 34°32' E 135°19'0 0.0
2015-Jun-29 15:23N 34°32' E 135°19'0 0.0
2015-Jun-29 14:23N 34°32' E 135°19'0 0.0
2015-Jun-29 13:23N 34°32' E 135°19'0 0.0
2015-Jun-29 12:23N 34°32' E 135°19'0 0.0
2015-Jun-29 11:29N 34°32' E 135°19'0 0.0
2015-Jun-29 10:29N 34°32' E 135°19'0 0.0
2015-Jun-29 09:29N 34°32' E 135°19'0 0.0
2015-Jun-29 08:29N 34°32' E 135°19'0 0.0
2015-Jun-29 07:29N 34°32' E 135°19'4 4.2
2015-Jun-29 06:33N 34°29' E 135°16'4 4.3
2015-Jun-29 05:33N 34°25' E 135°14'0 0.0
2015-Jun-29 03:29N 34°25' E 135°14'0 0.0
2015-Jun-29 02:29N 34°25' E 135°14'0 0.0
2015-Jun-29 01:29N 34°25' E 135°14'0 0.1
2015-Jun-29 00:12N 34°25' E 135°14'2 3.5
2015-Jun-28 23:33N 34°23' E 135°13'0 0.0
2015-Jun-28 22:22N 34°23' E 135°13'0 0.0
2015-Jun-28 21:31N 34°23' E 135°13'0 0.0
2015-Jun-28 20:31N 34°23' E 135°13'0 0.0
2015-Jun-28 19:31N 34°23' E 135°13'0 0.0
2015-Jun-28 18:31N 34°23' E 135°13'0 0.0
2015-Jun-28 17:31N 34°23' E 135°13'0 0.0
2015-Jun-28 16:31N 34°23' E 135°13'0 0.0
2015-Jun-28 15:31N 34°23' E 135°13'5 4.7
2015-Jun-28 14:33N 34°27' E 135°08'1212.2
2015-Jun-28 13:33N 34°37' E 135°01'7 0.2
2015-Jun-27 07:20N 34°36' E 134°53'912.1
2015-Jun-27 06:33N 34°35' E 135°05'1211.4
2015-Jun-27 05:33N 34°25' E 135°11'3 0.6
2015-Jun-27 00:13N 34°25' E 135°14'2 3.1
2015-Jun-26 23:33N 34°23' E 135°13'0 0.0
2015-Jun-26 22:29N 34°23' E 135°13'0 0.0
2015-Jun-26 19:06N 34°23' E 135°13'0 0.1
2015-Jun-26 18:33N 34°24' E 135°13'9 9.3
2015-Jun-26 17:33N 34°31' E 135°06'10 9.2
2015-Jun-26 16:30N 34°35' E 134°56'  
Track history (hours):
 
Tides and Currents Weather Stations Pressure Air Temp Water Temp Dewpoint Dewpoint Depression Visibility Wind Speed Wind Dir Waves Ship Positions

Houn Maru

Last reported at 2015-Jul-06 15:30 UTC. Time now 2015-Jul-06 15:38 UTC.
Position N 34°33' E 135°18'.

Length 91 m; draft 6 m.

Type: Tanker. MMSI: 431101172.

Date/timePositionNaut miles runAvg speedWind from/ knotsBaromVisibWave heightAir tempDewpointWater temp
2015-Jul-06 15:30N 34°33' E 135°18'0 0.0
2015-Jul-06 14:30N 34°33' E 135°18'0 0.0
2015-Jul-06 13:30N 34°33' E 135°18'0 0.0
2015-Jul-06 12:29N 34°33' E 135°18'0 0.1
2015-Jul-06 11:29N 34°33' E 135°18'0 0.0
2015-Jul-06 10:12N 34°33' E 135°18'0 0.0
2015-Jul-06 09:29N 34°33' E 135°18'0 0.0
2015-Jul-06 07:23N 34°33' E 135°18'0 0.0
2015-Jul-06 06:23N 34°33' E 135°18'0 0.1
2015-Jul-06 05:33N 34°33' E 135°18'9 9.5
2015-Jul-06 04:33N 34°25' E 135°11'3 0.7
2015-Jul-06 00:13N 34°25' E 135°14'2 3.6
2015-Jul-05 23:33N 34°23' E 135°12'0 0.0
2015-Jul-05 22:32N 34°23' E 135°12'0 0.0
2015-Jul-05 21:18N 34°23' E 135°12'7 9.3
2015-Jul-05 20:33N 34°28' E 135°07'1110.8
2015-Jul-05 19:33N 34°36' E 134°58'5 0.1
2015-Jul-04 01:05N 34°35' E 134°51'813.7
2015-Jul-04 00:30N 34°37' E 135°01'1212.3
2015-Jul-03 23:33N 34°34' E 135°14'4 3.0
2015-Jul-03 22:07N 34°32' E 135°19'0 0.0
2015-Jul-03 21:31N 34°32' E 135°19'0 0.0
2015-Jul-03 20:31N 34°32' E 135°19'0 0.0
2015-Jul-03 19:31N 34°32' E 135°19'0 0.0
2015-Jul-03 18:13N 34°32' E 135°19'0 0.0
2015-Jul-03 17:25N 34°32' E 135°19'0 0.0
2015-Jul-03 16:31N 34°32' E 135°19'0 0.0
2015-Jul-03 15:31N 34°32' E 135°19'0 0.1
2015-Jul-03 14:31N 34°32' E 135°19'0 0.0
2015-Jul-03 13:19N 34°32' E 135°19'0 0.1
2015-Jul-03 12:31N 34°32' E 135°19'0 0.0
2015-Jul-03 11:25N 34°32' E 135°19'0 0.0
2015-Jul-03 10:31N 34°32' E 135°19'0 0.0
2015-Jul-03 09:31N 34°32' E 135°19'0 0.0
2015-Jul-03 08:31N 34°32' E 135°19'0 0.0
2015-Jul-03 07:31N 34°32' E 135°19'0 0.0
2015-Jul-03 06:19N 34°32' E 135°19'0 0.0
2015-Jul-03 05:31N 34°32' E 135°19'0 0.1
2015-Jul-03 04:31N 34°32' E 135°19'0 0.1
2015-Jul-03 03:31N 34°32' E 135°19'0 0.0
2015-Jul-03 02:31N 34°32' E 135°19'0 0.0
2015-Jul-03 01:13N 34°32' E 135°19'0 0.0
2015-Jul-03 00:31N 34°32' E 135°19'0 0.0
2015-Jul-02 23:31N 34°32' E 135°19'0 0.0
2015-Jul-02 22:31N 34°32' E 135°19'0 0.0
2015-Jul-02 21:19N 34°32' E 135°19'0 0.0
2015-Jul-02 19:25N 34°32' E 135°19'0 0.0
2015-Jul-02 18:31N 34°32' E 135°19'0 0.0
2015-Jul-02 17:31N 34°32' E 135°19'0 0.0
2015-Jul-02 16:25N 34°32' E 135°19'0 0.0
2015-Jul-02 15:31N 34°32' E 135°19'0 0.0
2015-Jul-02 14:25N 34°32' E 135°19'0 0.0
2015-Jul-02 13:25N 34°32' E 135°19'0 0.0
2015-Jul-02 12:31N 34°32' E 135°19'0 0.0
2015-Jul-02 11:07N 34°32' E 135°19'0 0.0
2015-Jul-02 10:19N 34°32' E 135°19'0 0.0
2015-Jul-02 09:31N 34°32' E 135°19'0 0.0
2015-Jul-02 08:31N 34°32' E 135°19'1 1.5
2015-Jul-02 07:33N 34°31' E 135°18'8 7.8
2015-Jul-02 06:33N 34°24' E 135°14'1 0.2
2015-Jul-02 01:30N 34°25' E 135°14'3 2.6
2015-Jul-02 00:32N 34°23' E 135°12'0 0.1
2015-Jul-01 23:32N 34°23' E 135°12'0 0.0
2015-Jul-01 22:31N 34°23' E 135°12'0 0.0
2015-Jul-01 21:32N 34°23' E 135°12'0 0.0
2015-Jul-01 20:31N 34°23' E 135°12'0 0.0
2015-Jul-01 19:32N 34°23' E 135°12'0 0.0
2015-Jul-01 18:16N 34°23' E 135°12'0 0.0
2015-Jul-01 17:31N 34°23' E 135°12'0 0.0
2015-Jul-01 16:25N 34°23' E 135°12'0 0.0
2015-Jul-01 15:28N 34°23' E 135°12'0 0.0
2015-Jul-01 14:31N 34°23' E 135°12'5 5.5
2015-Jul-01 13:33N 34°28' E 135°09'1010.5
2015-Jul-01 12:33N 34°36' E 135°02'1 0.0
2015-Jun-30 00:24N 34°37' E 135°01'1112.4
2015-Jun-29 23:33N 34°33' E 135°13'6 5.2
2015-Jun-29 22:29N 34°32' E 135°19'0 0.0
2015-Jun-29 21:29N 34°32' E 135°19'0 0.0
2015-Jun-29 20:23N 34°32' E 135°19'0 0.1
2015-Jun-29 19:29N 34°32' E 135°19'0 0.1
2015-Jun-29 18:29N 34°32' E 135°19'0 0.0
2015-Jun-29 17:29N 34°32' E 135°19'0 0.0
2015-Jun-29 16:23N 34°32' E 135°19'0 0.0
2015-Jun-29 15:23N 34°32' E 135°19'0 0.0
2015-Jun-29 14:23N 34°32' E 135°19'0 0.0
2015-Jun-29 13:23N 34°32' E 135°19'0 0.0
2015-Jun-29 12:23N 34°32' E 135°19'0 0.0
2015-Jun-29 11:29N 34°32' E 135°19'0 0.0
2015-Jun-29 10:29N 34°32' E 135°19'0 0.0
2015-Jun-29 09:29N 34°32' E 135°19'0 0.0
2015-Jun-29 08:29N 34°32' E 135°19'0 0.0
2015-Jun-29 07:29N 34°32' E 135°19'4 4.2
2015-Jun-29 06:33N 34°29' E 135°16'4 4.3
2015-Jun-29 05:33N 34°25' E 135°14'0 0.0
2015-Jun-29 03:29N 34°25' E 135°14'0 0.0
2015-Jun-29 02:29N 34°25' E 135°14'0 0.0
2015-Jun-29 01:29N 34°25' E 135°14'0 0.1
2015-Jun-29 00:12N 34°25' E 135°14'2 3.5
2015-Jun-28 23:33N 34°23' E 135°13'0 0.0
2015-Jun-28 22:22N 34°23' E 135°13'0 0.0
2015-Jun-28 21:31N 34°23' E 135°13'0 0.0
2015-Jun-28 20:31N 34°23' E 135°13'0 0.0
2015-Jun-28 19:31N 34°23' E 135°13'0 0.0
2015-Jun-28 18:31N 34°23' E 135°13'0 0.0
2015-Jun-28 17:31N 34°23' E 135°13'0 0.0
2015-Jun-28 16:31N 34°23' E 135°13'0 0.0
2015-Jun-28 15:31N 34°23' E 135°13'5 4.7
2015-Jun-28 14:33N 34°27' E 135°08'1212.2
2015-Jun-28 13:33N 34°37' E 135°01'7 0.2
2015-Jun-27 07:20N 34°36' E 134°53'912.1
2015-Jun-27 06:33N 34°35' E 135°05'1211.4
2015-Jun-27 05:33N 34°25' E 135°11'3 0.6
2015-Jun-27 00:13N 34°25' E 135°14'2 3.1
2015-Jun-26 23:33N 34°23' E 135°13'0 0.0
2015-Jun-26 22:29N 34°23' E 135°13'0 0.0
2015-Jun-26 19:06N 34°23' E 135°13'0 0.1
2015-Jun-26 18:33N 34°24' E 135°13'9 9.3
2015-Jun-26 17:33N 34°31' E 135°06'10 9.2
2015-Jun-26 16:30N 34°35' E 134°56'  

Dump ship's entire track history